sensor_id;sensor_type;location;lat;lon;timestamp;temperature;humidity
71514;DHT22;59335;46.652;21.272;2023-05-16T00:01:05;21.50;50.73
71514;DHT22;59335;46.652;21.272;2023-05-16T00:04:07;21.52;50.69
71514;DHT22;59335;46.652;21.272;2023-05-16T00:07:10;21.51;50.75
71514;DHT22;59335;46.652;21.272;2023-05-16T00:10:13;21.50;50.71
71514;DHT22;59335;46.652;21.272;2023-05-16T00:13:15;21.54;50.65
71514;DHT22;59335;46.652;21.272;2023-05-16T00:16:21;21.50;50.71
71514;DHT22;59335;46.652;21.272;2023-05-16T00:19:24;21.52;50.65
71514;DHT22;59335;46.652;21.272;2023-05-16T00:22:27;21.51;50.64
71514;DHT22;59335;46.652;21.272;2023-05-16T00:25:30;21.50;50.65
71514;DHT22;59335;46.652;21.272;2023-05-16T00:28:33;21.51;50.60
71514;DHT22;59335;46.652;21.272;2023-05-16T00:31:35;21.52;50.56
71514;DHT22;59335;46.652;21.272;2023-05-16T00:34:38;21.50;50.65
71514;DHT22;59335;46.652;21.272;2023-05-16T00:37:40;21.52;50.58
71514;DHT22;59335;46.652;21.272;2023-05-16T00:40:43;21.48;50.60
71514;DHT22;59335;46.652;21.272;2023-05-16T00:43:46;21.50;50.64
71514;DHT22;59335;46.652;21.272;2023-05-16T00:46:49;21.52;50.54
71514;DHT22;59335;46.652;21.272;2023-05-16T00:49:52;21.48;50.60
71514;DHT22;59335;46.652;21.272;2023-05-16T00:52:56;21.50;50.48
71514;DHT22;59335;46.652;21.272;2023-05-16T00:55:58;21.50;50.56
71514;DHT22;59335;46.652;21.272;2023-05-16T00:59:01;21.50;50.63
71514;DHT22;59335;46.652;21.272;2023-05-16T01:02:05;21.50;50.59
71514;DHT22;59335;46.652;21.272;2023-05-16T01:05:07;21.50;50.58
71514;DHT22;59335;46.652;21.272;2023-05-16T01:08:10;21.45;50.63
71514;DHT22;59335;46.652;21.272;2023-05-16T01:17:54;21.48;50.54
71514;DHT22;59335;46.652;21.272;2023-05-16T01:21:00;21.48;50.61
71514;DHT22;59335;46.652;21.272;2023-05-16T01:24:33;21.48;50.56
71514;DHT22;59335;46.652;21.272;2023-05-16T01:27:38;21.50;50.60
71514;DHT22;59335;46.652;21.272;2023-05-16T01:30:41;21.48;50.55
71514;DHT22;59335;46.652;21.272;2023-05-16T01:33:44;21.48;50.49
71514;DHT22;59335;46.652;21.272;2023-05-16T01:37:08;21.45;50.60
71514;DHT22;59335;46.652;21.272;2023-05-16T01:40:40;21.50;50.57
71514;DHT22;59335;46.652;21.272;2023-05-16T01:43:48;21.50;50.54
71514;DHT22;59335;46.652;21.272;2023-05-16T01:46:55;21.45;50.56
71514;DHT22;59335;46.652;21.272;2023-05-16T01:53:21;21.45;50.57
71514;DHT22;59335;46.652;21.272;2023-05-16T01:56:25;21.44;50.58
71514;DHT22;59335;46.652;21.272;2023-05-16T01:59:28;21.50;50.54
71514;DHT22;59335;46.652;21.272;2023-05-16T02:02:30;21.47;50.52
71514;DHT22;59335;46.652;21.272;2023-05-16T02:05:33;21.47;50.60
71514;DHT22;59335;46.652;21.272;2023-05-16T02:08:36;21.48;50.48
71514;DHT22;59335;46.652;21.272;2023-05-16T02:11:39;21.45;50.61
71514;DHT22;59335;46.652;21.272;2023-05-16T02:14:42;21.42;50.64
71514;DHT22;59335;46.652;21.272;2023-05-16T02:17:45;21.48;50.58
71514;DHT22;59335;46.652;21.272;2023-05-16T02:20:50;21.45;50.60
71514;DHT22;59335;46.652;21.272;2023-05-16T02:23:53;21.47;50.51
71514;DHT22;59335;46.652;21.272;2023-05-16T02:26:56;21.45;50.60
71514;DHT22;59335;46.652;21.272;2023-05-16T02:29:59;21.44;50.55
71514;DHT22;59335;46.652;21.272;2023-05-16T02:33:02;21.45;50.53
71514;DHT22;59335;46.652;21.272;2023-05-16T02:36:05;21.44;50.54
71514;DHT22;59335;46.652;21.272;2023-05-16T02:39:07;21.42;50.63
71514;DHT22;59335;46.652;21.272;2023-05-16T02:42:11;21.48;50.52
71514;DHT22;59335;46.652;21.272;2023-05-16T02:45:14;21.42;50.54
71514;DHT22;59335;46.652;21.272;2023-05-16T02:48:18;21.47;50.56
71514;DHT22;59335;46.652;21.272;2023-05-16T02:51:22;21.48;50.45
71514;DHT22;59335;46.652;21.272;2023-05-16T02:54:25;21.50;50.46
71514;DHT22;59335;46.652;21.272;2023-05-16T02:57:28;21.45;50.57
71514;DHT22;59335;46.652;21.272;2023-05-16T03:00:30;21.45;50.56
71514;DHT22;59335;46.652;21.272;2023-05-16T03:03:33;21.44;50.55
71514;DHT22;59335;46.652;21.272;2023-05-16T03:06:37;21.44;50.59
71514;DHT22;59335;46.652;21.272;2023-05-16T03:09:40;21.42;50.63
71514;DHT22;59335;46.652;21.272;2023-05-16T03:12:43;21.44;50.61
71514;DHT22;59335;46.652;21.272;2023-05-16T03:15:47;21.44;50.58
71514;DHT22;59335;46.652;21.272;2023-05-16T03:18:49;21.45;50.54
71514;DHT22;59335;46.652;21.272;2023-05-16T03:21:52;21.44;50.46
71514;DHT22;59335;46.652;21.272;2023-05-16T03:24:55;21.44;50.58
71514;DHT22;59335;46.652;21.272;2023-05-16T03:27:57;21.41;50.57
71514;DHT22;59335;46.652;21.272;2023-05-16T03:31:00;21.44;50.54
71514;DHT22;59335;46.652;21.272;2023-05-16T03:34:03;21.41;50.52
71514;DHT22;59335;46.652;21.272;2023-05-16T03:37:05;21.42;50.57
71514;DHT22;59335;46.652;21.272;2023-05-16T03:40:08;21.44;50.57
71514;DHT22;59335;46.652;21.272;2023-05-16T03:43:12;21.44;50.59
71514;DHT22;59335;46.652;21.272;2023-05-16T03:46:15;21.44;50.55
71514;DHT22;59335;46.652;21.272;2023-05-16T03:49:19;21.41;50.65
71514;DHT22;59335;46.652;21.272;2023-05-16T03:52:22;21.38;50.63
71514;DHT22;59335;46.652;21.272;2023-05-16T03:55:25;21.44;50.54
71514;DHT22;59335;46.652;21.272;2023-05-16T03:58:28;21.40;50.60
71514;DHT22;59335;46.652;21.272;2023-05-16T04:01:31;21.41;50.64
71514;DHT22;59335;46.652;21.272;2023-05-16T04:04:34;21.40;50.71
71514;DHT22;59335;46.652;21.272;2023-05-16T04:07:36;21.42;50.67
71514;DHT22;59335;46.652;21.272;2023-05-16T04:10:39;21.42;50.63
71514;DHT22;59335;46.652;21.272;2023-05-16T04:13:42;21.45;50.64
71514;DHT22;59335;46.652;21.272;2023-05-16T04:16:45;21.40;50.74
71514;DHT22;59335;46.652;21.272;2023-05-16T04:19:47;21.41;50.72
71514;DHT22;59335;46.652;21.272;2023-05-16T04:22:50;21.42;50.71
71514;DHT22;59335;46.652;21.272;2023-05-16T04:25:53;21.42;50.63
71514;DHT22;59335;46.652;21.272;2023-05-16T04:28:57;21.42;50.69
71514;DHT22;59335;46.652;21.272;2023-05-16T04:32:01;21.41;50.72
71514;DHT22;59335;46.652;21.272;2023-05-16T04:35:05;21.41;50.74
71514;DHT22;59335;46.652;21.272;2023-05-16T04:38:10;21.41;50.67
71514;DHT22;59335;46.652;21.272;2023-05-16T04:41:13;21.42;50.67
71514;DHT22;59335;46.652;21.272;2023-05-16T04:44:15;21.41;50.69
71514;DHT22;59335;46.652;21.272;2023-05-16T04:47:18;21.45;50.64
71514;DHT22;59335;46.652;21.272;2023-05-16T04:50:21;21.40;50.61
71514;DHT22;59335;46.652;21.272;2023-05-16T04:53:24;21.41;50.61
71514;DHT22;59335;46.652;21.272;2023-05-16T04:56:27;21.41;50.53
71514;DHT22;59335;46.652;21.272;2023-05-16T04:59:29;21.41;50.55
71514;DHT22;59335;46.652;21.272;2023-05-16T05:02:32;21.40;50.59
71514;DHT22;59335;46.652;21.272;2023-05-16T05:05:35;21.41;50.63
71514;DHT22;59335;46.652;21.272;2023-05-16T05:08:37;21.41;50.62
71514;DHT22;59335;46.652;21.272;2023-05-16T05:11:40;21.48;50.48
71514;DHT22;59335;46.652;21.272;2023-05-16T05:14:43;21.47;50.45
71514;DHT22;59335;46.652;21.272;2023-05-16T05:17:45;21.50;50.51
71514;DHT22;59335;46.652;21.272;2023-05-16T05:20:49;21.55;50.47
71514;DHT22;59335;46.652;21.272;2023-05-16T05:23:51;21.58;50.43
71514;DHT22;59335;46.652;21.272;2023-05-16T05:26:54;21.66;50.45
71514;DHT22;59335;46.652;21.272;2023-05-16T05:29:57;21.61;50.51
71514;DHT22;59335;46.652;21.272;2023-05-16T05:33:00;21.41;56.09
71514;DHT22;59335;46.652;21.272;2023-05-16T05:36:03;21.48;54.67
71514;DHT22;59335;46.652;21.272;2023-05-16T05:39:05;21.42;55.09
71514;DHT22;59335;46.652;21.272;2023-05-16T05:42:08;21.48;53.55
71514;DHT22;59335;46.652;21.272;2023-05-16T05:45:10;21.42;56.00
71514;DHT22;59335;46.652;21.272;2023-05-16T05:48:14;21.21;58.20
71514;DHT22;59335;46.652;21.272;2023-05-16T05:51:18;21.20;57.75
71514;DHT22;59335;46.652;21.272;2023-05-16T05:54:22;21.24;56.50
71514;DHT22;59335;46.652;21.272;2023-05-16T05:57:26;21.21;57.45
71514;DHT22;59335;46.652;21.272;2023-05-16T06:00:29;21.26;57.47
71514;DHT22;59335;46.652;21.272;2023-05-16T06:03:32;21.28;57.82
71514;DHT22;59335;46.652;21.272;2023-05-16T06:06:36;21.40;56.86
71514;DHT22;59335;46.652;21.272;2023-05-16T06:09:38;21.40;57.51
71514;DHT22;59335;46.652;21.272;2023-05-16T06:13:14;21.28;58.10
71514;DHT22;59335;46.652;21.272;2023-05-16T06:16:17;21.31;58.15
71514;DHT22;59335;46.652;21.272;2023-05-16T06:19:20;21.34;58.13
71514;DHT22;59335;46.652;21.272;2023-05-16T06:22:22;21.30;58.09
71514;DHT22;59335;46.652;21.272;2023-05-16T06:25:26;21.34;57.54
71514;DHT22;59335;46.652;21.272;2023-05-16T06:28:29;21.40;57.10
71514;DHT22;59335;46.652;21.272;2023-05-16T06:31:33;21.42;56.24
71514;DHT22;59335;46.652;21.272;2023-05-16T06:34:36;21.45;56.17
71514;DHT22;59335;46.652;21.272;2023-05-16T06:37:38;21.45;56.43
71514;DHT22;59335;46.652;21.272;2023-05-16T06:40:44;21.44;56.39
71514;DHT22;59335;46.652;21.272;2023-05-16T06:43:47;21.44;56.77
71514;DHT22;59335;46.652;21.272;2023-05-16T06:46:50;21.47;56.27
71514;DHT22;59335;46.652;21.272;2023-05-16T06:49:53;21.50;57.12
71514;DHT22;59335;46.652;21.272;2023-05-16T06:52:56;21.59;56.62
71514;DHT22;59335;46.652;21.272;2023-05-16T06:56:03;21.63;56.27
71514;DHT22;59335;46.652;21.272;2023-05-16T06:59:18;21.69;56.00
71514;DHT22;59335;46.652;21.272;2023-05-16T07:02:21;21.77;56.15
71514;DHT22;59335;46.652;21.272;2023-05-16T07:05:24;21.86;55.92
71514;DHT22;59335;46.652;21.272;2023-05-16T07:08:27;21.79;56.03
71514;DHT22;59335;46.652;21.272;2023-05-16T07:11:30;21.78;56.08
71514;DHT22;59335;46.652;21.272;2023-05-16T07:14:35;21.72;56.00
71514;DHT22;59335;46.652;21.272;2023-05-16T07:17:37;21.71;56.31
71514;DHT22;59335;46.652;21.272;2023-05-16T07:20:40;21.71;55.99
71514;DHT22;59335;46.652;21.272;2023-05-16T07:23:46;21.74;56.04
71514;DHT22;59335;46.652;21.272;2023-05-16T07:26:55;21.71;56.12
71514;DHT22;59335;46.652;21.272;2023-05-16T07:30:01;21.72;55.61
71514;DHT22;59335;46.652;21.272;2023-05-16T07:33:04;21.74;55.47
71514;DHT22;59335;46.652;21.272;2023-05-16T07:36:07;21.74;55.58
71514;DHT22;59335;46.652;21.272;2023-05-16T07:39:18;21.72;55.69
71514;DHT22;59335;46.652;21.272;2023-05-16T07:42:21;21.77;55.84
71514;DHT22;59335;46.652;21.272;2023-05-16T07:45:25;21.82;55.77
71514;DHT22;59335;46.652;21.272;2023-05-16T07:48:28;21.95;56.22
71514;DHT22;59335;46.652;21.272;2023-05-16T07:51:31;21.95;55.70
71514;DHT22;59335;46.652;21.272;2023-05-16T07:54:34;21.96;56.22
71514;DHT22;59335;46.652;21.272;2023-05-16T07:57:43;21.96;56.20
71514;DHT22;59335;46.652;21.272;2023-05-16T08:00:47;21.95;56.28
71514;DHT22;59335;46.652;21.272;2023-05-16T08:03:51;22.03;56.27
71514;DHT22;59335;46.652;21.272;2023-05-16T08:06:55;22.10;56.24
71514;DHT22;59335;46.652;21.272;2023-05-16T08:09:58;22.12;55.99
71514;DHT22;59335;46.652;21.272;2023-05-16T08:13:01;22.10;55.63
71514;DHT22;59335;46.652;21.272;2023-05-16T08:16:04;22.12;55.19
71514;DHT22;59335;46.652;21.272;2023-05-16T08:19:07;22.05;55.18
71514;DHT22;59335;46.652;21.272;2023-05-16T08:22:10;22.03;55.05
71514;DHT22;59335;46.652;21.272;2023-05-16T08:25:13;22.02;55.36
71514;DHT22;59335;46.652;21.272;2023-05-16T08:28:16;22.02;55.38
71514;DHT22;59335;46.652;21.272;2023-05-16T08:31:18;22.00;56.12
71514;DHT22;59335;46.652;21.272;2023-05-16T08:34:22;22.02;56.05
71514;DHT22;59335;46.652;21.272;2023-05-16T08:37:25;22.00;55.78
71514;DHT22;59335;46.652;21.272;2023-05-16T08:40:28;22.00;55.88
71514;DHT22;59335;46.652;21.272;2023-05-16T08:43:31;22.00;56.41
71514;DHT22;59335;46.652;21.272;2023-05-16T08:46:35;22.02;56.43
71514;DHT22;59335;46.652;21.272;2023-05-16T08:49:39;22.07;56.61
71514;DHT22;59335;46.652;21.272;2023-05-16T08:52:46;22.12;56.46
71514;DHT22;59335;46.652;21.272;2023-05-16T08:56:00;22.20;56.65
71514;DHT22;59335;46.652;21.272;2023-05-16T08:59:08;22.24;56.64
71514;DHT22;59335;46.652;21.272;2023-05-16T09:02:12;22.26;57.04
71514;DHT22;59335;46.652;21.272;2023-05-16T09:05:16;22.30;57.16
71514;DHT22;59335;46.652;21.272;2023-05-16T09:08:21;22.27;56.83
71514;DHT22;59335;46.652;21.272;2023-05-16T09:11:24;22.19;57.09
71514;DHT22;59335;46.652;21.272;2023-05-16T09:14:28;22.23;56.62
71514;DHT22;59335;46.652;21.272;2023-05-16T09:17:43;22.19;56.18
71514;DHT22;59335;46.652;21.272;2023-05-16T09:20:47;22.16;56.12
71514;DHT22;59335;46.652;21.272;2023-05-16T09:23:51;22.13;56.10
71514;DHT22;59335;46.652;21.272;2023-05-16T09:26:54;22.13;56.77
71514;DHT22;59335;46.652;21.272;2023-05-16T09:29:58;22.12;56.75
71514;DHT22;59335;46.652;21.272;2023-05-16T09:33:05;22.10;56.22
71514;DHT22;59335;46.652;21.272;2023-05-16T09:36:08;22.12;56.39
71514;DHT22;59335;46.652;21.272;2023-05-16T09:39:14;22.14;56.46
71514;DHT22;59335;46.652;21.272;2023-05-16T09:42:18;22.12;56.09
71514;DHT22;59335;46.652;21.272;2023-05-16T09:45:21;22.13;56.53
71514;DHT22;59335;46.652;21.272;2023-05-16T09:48:26;22.13;57.35
71514;DHT22;59335;46.652;21.272;2023-05-16T09:51:30;22.20;56.88
71514;DHT22;59335;46.652;21.272;2023-05-16T09:54:36;22.23;57.23
71514;DHT22;59335;46.652;21.272;2023-05-16T09:57:40;22.23;57.33
71514;DHT22;59335;46.652;21.272;2023-05-16T10:00:44;22.34;57.52
71514;DHT22;59335;46.652;21.272;2023-05-16T10:03:49;22.43;57.51
71514;DHT22;59335;46.652;21.272;2023-05-16T10:06:54;22.48;57.24
71514;DHT22;59335;46.652;21.272;2023-05-16T10:10:05;22.50;57.15
71514;DHT22;59335;46.652;21.272;2023-05-16T10:13:10;22.44;57.03
71514;DHT22;59335;46.652;21.272;2023-05-16T10:16:13;22.34;57.26
71514;DHT22;59335;46.652;21.272;2023-05-16T10:19:19;22.37;57.20
71514;DHT22;59335;46.652;21.272;2023-05-16T10:22:23;22.29;57.30
71514;DHT22;59335;46.652;21.272;2023-05-16T10:25:33;22.29;56.75
71514;DHT22;59335;46.652;21.272;2023-05-16T10:28:39;22.23;56.93
71514;DHT22;59335;46.652;21.272;2023-05-16T10:31:42;22.27;56.26
71514;DHT22;59335;46.652;21.272;2023-05-16T10:34:46;22.26;56.36
71514;DHT22;59335;46.652;21.272;2023-05-16T10:37:50;22.26;56.75
71514;DHT22;59335;46.652;21.272;2023-05-16T10:40:53;22.27;56.83
71514;DHT22;59335;46.652;21.272;2023-05-16T10:43:57;22.23;57.13
71514;DHT22;59335;46.652;21.272;2023-05-16T10:47:00;22.23;57.26
71514;DHT22;59335;46.652;21.272;2023-05-16T10:50:07;22.24;57.53
71514;DHT22;59335;46.652;21.272;2023-05-16T10:56:22;22.34;57.37
71514;DHT22;59335;46.652;21.272;2023-05-16T10:59:27;22.32;57.34
71514;DHT22;59335;46.652;21.272;2023-05-16T11:02:31;22.30;57.42
71514;DHT22;59335;46.652;21.272;2023-05-16T11:05:35;22.29;57.47
71514;DHT22;59335;46.652;21.272;2023-05-16T11:09:19;22.32;57.76
71514;DHT22;59335;46.652;21.272;2023-05-16T11:12:43;22.30;57.61
71514;DHT22;59335;46.652;21.272;2023-05-16T11:15:49;22.27;57.11
71514;DHT22;59335;46.652;21.272;2023-05-16T11:18:52;22.21;57.73
71514;DHT22;59335;46.652;21.272;2023-05-16T11:22:23;22.20;57.63
71514;DHT22;59335;46.652;21.272;2023-05-16T11:25:35;22.20;57.48
71514;DHT22;59335;46.652;21.272;2023-05-16T11:28:48;22.20;57.13
71514;DHT22;59335;46.652;21.272;2023-05-16T11:31:51;22.19;56.72
71514;DHT22;59335;46.652;21.272;2023-05-16T11:34:56;22.17;57.59
71514;DHT22;59335;46.652;21.272;2023-05-16T11:37:59;22.24;56.71
71514;DHT22;59335;46.652;21.272;2023-05-16T11:41:05;22.21;57.68
71514;DHT22;59335;46.652;21.272;2023-05-16T11:44:12;22.20;57.78
71514;DHT22;59335;46.652;21.272;2023-05-16T11:47:15;22.19;57.39
71514;DHT22;59335;46.652;21.272;2023-05-16T11:50:20;22.19;57.66
71514;DHT22;59335;46.652;21.272;2023-05-16T11:53:23;22.23;57.78
71514;DHT22;59335;46.652;21.272;2023-05-16T11:56:26;22.29;58.09
71514;DHT22;59335;46.652;21.272;2023-05-16T11:59:29;22.27;57.66
71514;DHT22;59335;46.652;21.272;2023-05-16T12:02:33;22.30;57.13
71514;DHT22;59335;46.652;21.272;2023-05-16T12:05:36;22.27;56.90
71514;DHT22;59335;46.652;21.272;2023-05-16T12:08:48;22.27;56.57
71514;DHT22;59335;46.652;21.272;2023-05-16T12:11:51;22.21;57.40
71514;DHT22;59335;46.652;21.272;2023-05-16T12:14:54;22.23;56.88
71514;DHT22;59335;46.652;21.272;2023-05-16T12:17:57;22.24;56.18
71514;DHT22;59335;46.652;21.272;2023-05-16T12:21:00;22.23;56.12
71514;DHT22;59335;46.652;21.272;2023-05-16T12:24:03;22.21;57.25
71514;DHT22;59335;46.652;21.272;2023-05-16T12:27:07;22.20;57.44
71514;DHT22;59335;46.652;21.272;2023-05-16T12:30:10;22.23;57.29
71514;DHT22;59335;46.652;21.272;2023-05-16T12:33:15;22.23;57.38
71514;DHT22;59335;46.652;21.272;2023-05-16T12:36:18;22.21;57.33
71514;DHT22;59335;46.652;21.272;2023-05-16T12:39:21;22.19;57.02
71514;DHT22;59335;46.652;21.272;2023-05-16T12:42:28;22.19;57.10
71514;DHT22;59335;46.652;21.272;2023-05-16T12:45:32;22.17;57.36
71514;DHT22;59335;46.652;21.272;2023-05-16T12:48:38;22.14;57.49
71514;DHT22;59335;46.652;21.272;2023-05-16T12:51:53;22.14;57.50
71514;DHT22;59335;46.652;21.272;2023-05-16T12:54:56;22.12;57.57
71514;DHT22;59335;46.652;21.272;2023-05-16T12:57:59;22.16;57.51
71514;DHT22;59335;46.652;21.272;2023-05-16T13:01:03;22.14;57.38
71514;DHT22;59335;46.652;21.272;2023-05-16T13:04:07;22.13;57.35
71514;DHT22;59335;46.652;21.272;2023-05-16T13:07:10;22.13;57.45
71514;DHT22;59335;46.652;21.272;2023-05-16T13:10:14;22.12;57.42
71514;DHT22;59335;46.652;21.272;2023-05-16T13:13:17;22.10;57.29
71514;DHT22;59335;46.652;21.272;2023-05-16T13:16:37;22.09;57.34
71514;DHT22;59335;46.652;21.272;2023-05-16T13:19:41;22.07;57.36
71514;DHT22;59335;46.652;21.272;2023-05-16T13:22:43;22.07;57.51
71514;DHT22;59335;46.652;21.272;2023-05-16T13:25:48;22.07;57.40
71514;DHT22;59335;46.652;21.272;2023-05-16T13:28:52;22.05;57.51
71514;DHT22;59335;46.652;21.272;2023-05-16T13:31:56;22.05;57.27
71514;DHT22;59335;46.652;21.272;2023-05-16T13:34:58;22.05;57.30
71514;DHT22;59335;46.652;21.272;2023-05-16T13:38:01;22.05;57.24
71514;DHT22;59335;46.652;21.272;2023-05-16T13:41:05;22.05;57.28
71514;DHT22;59335;46.652;21.272;2023-05-16T13:44:10;22.03;57.33
71514;DHT22;59335;46.652;21.272;2023-05-16T13:47:17;22.10;57.28
71514;DHT22;59335;46.652;21.272;2023-05-16T13:50:20;22.06;57.18
71514;DHT22;59335;46.652;21.272;2023-05-16T13:53:23;22.05;57.16
71514;DHT22;59335;46.652;21.272;2023-05-16T13:56:26;22.05;57.15
71514;DHT22;59335;46.652;21.272;2023-05-16T13:59:28;22.00;57.18
71514;DHT22;59335;46.652;21.272;2023-05-16T14:02:51;22.00;57.19
71514;DHT22;59335;46.652;21.272;2023-05-16T14:05:54;22.00;57.24
71514;DHT22;59335;46.652;21.272;2023-05-16T14:08:57;22.03;57.11
71514;DHT22;59335;46.652;21.272;2023-05-16T14:12:00;22.07;57.07
71514;DHT22;59335;46.652;21.272;2023-05-16T14:15:04;22.09;56.94
71514;DHT22;59335;46.652;21.272;2023-05-16T14:18:07;22.13;56.75
71514;DHT22;59335;46.652;21.272;2023-05-16T14:21:10;22.12;56.87
71514;DHT22;59335;46.652;21.272;2023-05-16T14:24:14;22.12;56.70
71514;DHT22;59335;46.652;21.272;2023-05-16T14:27:17;22.14;56.75
71514;DHT22;59335;46.652;21.272;2023-05-16T14:30:19;22.12;56.88
71514;DHT22;59335;46.652;21.272;2023-05-16T14:33:22;22.07;56.74
71514;DHT22;59335;46.652;21.272;2023-05-16T14:36:24;22.06;56.75
71514;DHT22;59335;46.652;21.272;2023-05-16T14:39:27;22.07;56.74
71514;DHT22;59335;46.652;21.272;2023-05-16T14:42:30;22.07;56.75
71514;DHT22;59335;46.652;21.272;2023-05-16T14:45:33;22.03;56.87
71514;DHT22;59335;46.652;21.272;2023-05-16T14:48:35;22.03;56.91
71514;DHT22;59335;46.652;21.272;2023-05-16T14:51:38;22.00;56.88
71514;DHT22;59335;46.652;21.272;2023-05-16T14:54:40;22.02;56.94
71514;DHT22;59335;46.652;21.272;2023-05-16T14:57:43;22.02;56.91
71514;DHT22;59335;46.652;21.272;2023-05-16T15:00:47;21.99;56.97
71514;DHT22;59335;46.652;21.272;2023-05-16T15:03:49;21.98;56.88
71514;DHT22;59335;46.652;21.272;2023-05-16T15:06:57;22.00;56.80
71514;DHT22;59335;46.652;21.272;2023-05-16T15:10:00;21.99;56.88
71514;DHT22;59335;46.652;21.272;2023-05-16T15:13:03;21.95;56.84
71514;DHT22;59335;46.652;21.272;2023-05-16T15:16:06;21.96;56.85
71514;DHT22;59335;46.652;21.272;2023-05-16T15:19:09;21.95;56.93
71514;DHT22;59335;46.652;21.272;2023-05-16T15:22:12;22.05;58.98
71514;DHT22;59335;46.652;21.272;2023-05-16T15:25:14;22.02;64.22
71514;DHT22;59335;46.652;21.272;2023-05-16T15:28:17;21.96;66.01
71514;DHT22;59335;46.652;21.272;2023-05-16T15:31:23;21.92;67.99
71514;DHT22;59335;46.652;21.272;2023-05-16T15:34:27;21.89;68.35
71514;DHT22;59335;46.652;21.272;2023-05-16T15:37:30;21.86;68.49
71514;DHT22;59335;46.652;21.272;2023-05-16T15:40:32;21.82;68.61
71514;DHT22;59335;46.652;21.272;2023-05-16T15:43:35;21.79;69.95
71514;DHT22;59335;46.652;21.272;2023-05-16T15:46:38;21.79;69.92
71514;DHT22;59335;46.652;21.272;2023-05-16T15:49:40;21.77;69.37
71514;DHT22;59335;46.652;21.272;2023-05-16T15:52:44;21.78;69.72
71514;DHT22;59335;46.652;21.272;2023-05-16T15:55:47;21.78;70.03
71514;DHT22;59335;46.652;21.272;2023-05-16T15:58:50;21.79;65.86
71514;DHT22;59335;46.652;21.272;2023-05-16T16:01:52;21.81;67.83
71514;DHT22;59335;46.652;21.272;2023-05-16T16:04:55;21.83;67.82
71514;DHT22;59335;46.652;21.272;2023-05-16T16:07:58;21.81;67.03
71514;DHT22;59335;46.652;21.272;2023-05-16T16:11:01;21.82;68.42
71514;DHT22;59335;46.652;21.272;2023-05-16T16:14:05;21.83;67.27
71514;DHT22;59335;46.652;21.272;2023-05-16T16:17:09;21.82;67.13
71514;DHT22;59335;46.652;21.272;2023-05-16T16:20:12;21.83;67.82
71514;DHT22;59335;46.652;21.272;2023-05-16T16:23:15;21.82;66.83
71514;DHT22;59335;46.652;21.272;2023-05-16T16:26:18;21.83;66.10
71514;DHT22;59335;46.652;21.272;2023-05-16T16:29:21;21.82;66.54
71514;DHT22;59335;46.652;21.272;2023-05-16T16:32:25;21.82;64.97
71514;DHT22;59335;46.652;21.272;2023-05-16T16:35:28;21.82;65.42
71514;DHT22;59335;46.652;21.272;2023-05-16T16:38:32;21.83;65.11
71514;DHT22;59335;46.652;21.272;2023-05-16T16:41:36;21.83;64.69
71514;DHT22;59335;46.652;21.272;2023-05-16T16:44:39;21.81;64.30
71514;DHT22;59335;46.652;21.272;2023-05-16T16:47:43;21.85;64.02
71514;DHT22;59335;46.652;21.272;2023-05-16T16:50:46;21.83;63.48
71514;DHT22;59335;46.652;21.272;2023-05-16T16:53:50;21.83;63.16
71514;DHT22;59335;46.652;21.272;2023-05-16T16:56:54;21.85;62.88
71514;DHT22;59335;46.652;21.272;2023-05-16T16:59:59;21.85;62.16
71514;DHT22;59335;46.652;21.272;2023-05-16T17:03:02;21.85;62.21
71514;DHT22;59335;46.652;21.272;2023-05-16T17:06:07;21.86;62.23
71514;DHT22;59335;46.652;21.272;2023-05-16T17:09:10;21.86;62.16
71514;DHT22;59335;46.652;21.272;2023-05-16T17:12:19;21.83;61.95
71514;DHT22;59335;46.652;21.272;2023-05-16T17:15:24;21.83;61.95
71514;DHT22;59335;46.652;21.272;2023-05-16T17:18:28;21.82;61.78
71514;DHT22;59335;46.652;21.272;2023-05-16T17:21:36;21.81;61.72
71514;DHT22;59335;46.652;21.272;2023-05-16T17:24:42;21.82;61.68
71514;DHT22;59335;46.652;21.272;2023-05-16T17:27:46;21.81;61.57
71514;DHT22;59335;46.652;21.272;2023-05-16T17:30:51;21.81;61.42
71514;DHT22;59335;46.652;21.272;2023-05-16T17:33:55;21.82;61.36
71514;DHT22;59335;46.652;21.272;2023-05-16T17:37:01;21.82;61.35
71514;DHT22;59335;46.652;21.272;2023-05-16T17:40:08;21.78;61.38
71514;DHT22;59335;46.652;21.272;2023-05-16T17:43:20;21.78;61.40
71514;DHT22;59335;46.652;21.272;2023-05-16T17:46:25;21.78;61.32
71514;DHT22;59335;46.652;21.272;2023-05-16T17:49:29;21.79;61.15
71514;DHT22;59335;46.652;21.272;2023-05-16T17:52:34;21.79;61.13
71514;DHT22;59335;46.652;21.272;2023-05-16T17:55:38;21.78;61.17
71514;DHT22;59335;46.652;21.272;2023-05-16T17:58:42;21.78;61.05
71514;DHT22;59335;46.652;21.272;2023-05-16T18:01:46;21.78;60.98
71514;DHT22;59335;46.652;21.272;2023-05-16T18:04:50;21.79;60.90
71514;DHT22;59335;46.652;21.272;2023-05-16T18:07:54;21.77;60.83
71514;DHT22;59335;46.652;21.272;2023-05-16T18:10:59;21.77;60.75
71514;DHT22;59335;46.652;21.272;2023-05-16T18:14:02;21.78;60.76
71514;DHT22;59335;46.652;21.272;2023-05-16T18:17:08;21.79;60.62
71514;DHT22;59335;46.652;21.272;2023-05-16T18:20:13;21.77;60.58
71514;DHT22;59335;46.652;21.272;2023-05-16T18:23:17;21.81;60.42
71514;DHT22;59335;46.652;21.272;2023-05-16T18:26:21;21.78;60.28
71514;DHT22;59335;46.652;21.272;2023-05-16T18:29:25;21.79;60.22
71514;DHT22;59335;46.652;21.272;2023-05-16T18:32:29;21.78;60.23
71514;DHT22;59335;46.652;21.272;2023-05-16T18:35:33;21.78;60.10
71514;DHT22;59335;46.652;21.272;2023-05-16T18:38:39;21.78;60.22
71514;DHT22;59335;46.652;21.272;2023-05-16T18:41:43;21.78;60.09
71514;DHT22;59335;46.652;21.272;2023-05-16T18:44:50;21.78;59.94
71514;DHT22;59335;46.652;21.272;2023-05-16T18:47:54;21.78;59.92
71514;DHT22;59335;46.652;21.272;2023-05-16T18:50:58;21.77;59.99
71514;DHT22;59335;46.652;21.272;2023-05-16T18:54:02;21.77;59.99
71514;DHT22;59335;46.652;21.272;2023-05-16T18:57:07;21.74;59.91
71514;DHT22;59335;46.652;21.272;2023-05-16T19:00:11;21.74;59.86
71514;DHT22;59335;46.652;21.272;2023-05-16T19:03:15;21.75;59.76
71514;DHT22;59335;46.652;21.272;2023-05-16T19:06:20;21.75;59.70
71514;DHT22;59335;46.652;21.272;2023-05-16T19:09:24;21.74;59.68
71514;DHT22;59335;46.652;21.272;2023-05-16T19:12:30;21.71;59.67
71514;DHT22;59335;46.652;21.272;2023-05-16T19:15:36;21.77;59.50
71514;DHT22;59335;46.652;21.272;2023-05-16T19:18:42;21.74;59.45